Time;durP1;ratioP1;P1;durP2;ratioP2;P2;SDS_P1;SDS_P2;PMS_P1;PMS_P2;Temp;Humidity;BMP_temperature;BMP_pressure;BME280_temperature;BME280_humidity;BME280_pressure;Samples;Min_cycle;Max_cycle;Signal;HPM_P1;HPM_P2
2022/01/24 00:02:15;;;;;;;10.02;9.15;;;15.70;59.70;;;;;;4955336;28;20150;-21
2022/01/24 00:04:41;;;;;;;9.35;8.55;;;15.70;59.70;;;;;;4957757;28;20051;-22
2022/01/24 00:07:06;;;;;;;10.55;9.65;;;15.80;59.50;;;;;;4957063;28;20051;-21
2022/01/24 00:09:32;;;;;;;11.10;10.00;;;15.80;59.50;;;;;;4956159;28;20428;-21
2022/01/24 00:12:13;;;;;;;10.80;9.80;;;15.80;59.40;;;;;;4956999;28;20043;-22
2022/01/24 00:17:29;;;;;;;11.07;10.07;;;15.80;59.50;;;;;;4955567;28;20102;-21
2022/01/24 00:28:10;;;;;;;10.18;9.38;;;15.70;59.60;;;;;;4953363;28;20135;-21
2022/01/24 00:30:35;;;;;;;10.07;9.18;;;15.80;59.60;;;;;;4954315;28;20063;-21
2022/01/24 00:33:01;;;;;;;10.05;9.15;;;15.70;59.60;;;;;;4956912;28;20055;-21
2022/01/24 00:35:26;;;;;;;9.38;8.50;;;15.70;59.70;;;;;;4956626;28;20114;-21
2022/01/24 00:37:52;;;;;;;8.98;8.27;;;15.70;59.50;;;;;;4956433;28;20508;-20
2022/01/24 00:40:18;;;;;;;9.45;8.55;;;15.80;59.50;;;;;;4956035;28;20043;-22
2022/01/24 00:42:54;;;;;;;8.90;8.10;;;15.70;59.50;;;;;;4956546;28;20058;-21
2022/01/24 00:45:32;;;;;;;9.32;8.48;;;15.80;59.50;;;;;;4955797;28;20253;-22
2022/01/24 00:55:40;;;;;;;8.23;7.50;;;15.70;59.70;;;;;;4957109;28;20212;-21
2022/01/24 00:58:06;;;;;;;8.55;7.82;;;15.60;59.70;;;;;;4956595;28;20153;-21
2022/01/24 01:00:32;;;;;;;8.98;7.90;;;15.60;59.70;;;;;;4956028;28;20493;-20
2022/01/24 01:02:57;;;;;;;7.72;7.13;;;15.60;59.70;;;;;;4957147;28;20058;-23
2022/01/24 01:05:40;;;;;;;8.00;7.38;;;15.70;59.70;;;;;;4951861;28;20580;-21
2022/01/24 01:18:48;;;;;;;7.85;7.25;;;15.70;59.70;;;;;;4949244;28;20106;-21
2022/01/24 01:21:15;;;;;;;7.15;6.65;;;15.60;59.70;;;;;;4955113;28;20047;-21
2022/01/24 01:23:48;;;;;;;7.65;7.05;;;15.70;59.80;;;;;;4954154;28;20043;-21
2022/01/24 01:26:26;;;;;;;7.23;6.63;;;15.60;59.80;;;;;;4954190;28;20035;-21
2022/01/24 01:28:57;;;;;;;7.22;6.72;;;15.60;59.70;;;;;;4954533;28;20043;-21
2022/01/24 01:32:15;;;;;;;6.35;5.85;;;15.60;59.70;;;;;;4952272;28;20595;-21
2022/01/24 01:55:39;;;;;;;5.80;5.30;;;15.60;59.60;;;;;;4955347;28;20122;-21
2022/01/24 01:58:13;;;;;;;5.72;5.30;;;15.70;59.70;;;;;;4949366;28;20047;-20
2022/01/24 02:00:42;;;;;;;5.78;5.38;;;15.60;59.60;;;;;;4948785;28;20056;-21
2022/01/24 02:03:07;;;;;;;5.40;5.10;;;15.70;59.60;;;;;;4956340;28;20047;-21
2022/01/24 02:05:34;;;;;;;5.60;5.20;;;15.60;59.60;;;;;;4955982;28;20061;-21
2022/01/24 02:08:00;;;;;;;5.50;5.10;;;15.60;59.60;;;;;;4953068;28;20053;-21
2022/01/24 02:10:26;;;;;;;5.32;4.93;;;15.60;59.60;;;;;;4955259;28;20082;-22
2022/01/24 02:12:53;;;;;;;5.15;4.85;;;15.60;59.60;;;;;;4956496;28;20126;-20
2022/01/24 02:15:30;;;;;;;5.88;5.47;;;15.60;59.60;;;;;;4954712;28;20087;-22
2022/01/24 02:18:09;;;;;;;5.43;5.05;;;15.60;59.50;;;;;;4954469;28;20040;-21
2022/01/24 02:20:43;;;;;;;4.53;4.32;;;15.70;59.60;;;;;;4955671;28;20062;-21
2022/01/24 02:25:46;;;;;;;4.65;4.35;;;15.70;59.50;;;;;;4953688;28;20630;-22
2022/01/24 02:28:15;;;;;;;4.63;4.30;;;15.70;59.50;;;;;;4955411;28;20435;-21
2022/01/24 02:33:10;;;;;;;5.00;4.70;;;15.60;59.50;;;;;;4948361;28;20066;-21
2022/01/24 02:35:36;;;;;;;5.22;4.88;;;15.60;59.50;;;;;;4955031;28;20505;-21
2022/01/24 02:38:08;;;;;;;4.18;3.97;;;15.70;59.50;;;;;;4958178;28;20051;-21
2022/01/24 02:40:33;;;;;;;4.78;4.47;;;15.60;59.50;;;;;;4958886;28;20062;-21
2022/01/24 02:48:22;;;;;;;4.55;4.25;;;15.60;59.50;;;;;;4956115;28;20127;-21
2022/01/24 02:48:48;;;;;;;5.15;4.75;;;15.60;59.40;;;;;;4958598;28;20508;-21
2022/01/24 02:51:45;;;;;;;4.72;4.32;;;15.60;59.40;;;;;;4958954;28;20436;-21
2022/01/24 02:54:25;;;;;;;4.28;3.97;;;15.70;59.40;;;;;;4957645;28;20043;-21
2022/01/24 02:56:51;;;;;;;4.43;4.13;;;15.70;59.30;;;;;;4957335;28;20058;-21
2022/01/24 02:59:16;;;;;;;4.70;4.40;;;15.70;59.30;;;;;;4958608;28;20035;-21
2022/01/24 03:01:45;;;;;;;4.28;4.07;;;15.70;59.20;;;;;;4959199;28;20047;-21
2022/01/24 03:04:11;;;;;;;4.15;3.85;;;15.70;59.20;;;;;;4954261;28;20110;-21
2022/01/24 03:06:36;;;;;;;4.13;3.92;;;15.70;59.20;;;;;;4958785;28;20055;-21
2022/01/24 03:09:06;;;;;;;4.43;4.22;;;15.70;59.10;;;;;;4957787;28;20457;-21
2022/01/24 03:11:56;;;;;;;3.75;3.55;;;15.70;59.10;;;;;;4948537;28;20517;-21
2022/01/24 03:14:18;;;;;;;4.30;4.00;;;15.70;59.20;;;;;;4957823;28;20035;-22
2022/01/24 03:16:43;;;;;;;4.55;4.25;;;15.70;59.10;;;;;;4959032;28;20107;-21
2022/01/24 03:19:09;;;;;;;4.25;3.95;;;15.70;59.30;;;;;;4958252;28;20134;-20
2022/01/24 03:21:35;;;;;;;4.05;3.85;;;15.70;59.20;;;;;;4957730;28;20102;-22
2022/01/24 03:24:00;;;;;;;3.95;3.67;;;15.70;59.10;;;;;;4958861;28;20576;-21
2022/01/24 03:26:26;;;;;;;4.07;3.78;;;15.60;59.10;;;;;;4957361;28;20047;-20
2022/01/24 03:28:51;;;;;;;4.20;4.00;;;15.70;59.10;;;;;;4958389;28;20046;-20
2022/01/24 03:31:17;;;;;;;4.00;3.80;;;15.60;59.00;;;;;;4957964;28;20134;-21
2022/01/24 03:33:43;;;;;;;4.05;3.80;;;15.70;59.20;;;;;;4957846;28;20123;-22
2022/01/24 03:36:08;;;;;;;3.42;3.22;;;15.60;59.20;;;;;;4958129;28;20389;-21
2022/01/24 03:38:34;;;;;;;4.13;3.83;;;15.70;59.10;;;;;;4957837;28;20093;-21
2022/01/24 03:40:59;;;;;;;3.17;2.97;;;15.60;59.10;;;;;;4958565;28;20417;-23
2022/01/24 03:43:25;;;;;;;3.60;3.40;;;15.70;59.00;;;;;;4957352;28;20062;-21
2022/01/24 03:48:56;;;;;;;3.90;3.70;;;15.70;59.00;;;;;;4957516;28;20612;-21
2022/01/24 03:51:23;;;;;;;3.53;3.33;;;15.60;58.90;;;;;;4948933;28;20292;-21
2022/01/24 03:53:48;;;;;;;3.58;3.38;;;15.70;59.00;;;;;;4956647;28;20121;-21
2022/01/24 03:56:14;;;;;;;3.58;3.38;;;15.70;59.00;;;;;;4958116;28;20070;-21
2022/01/24 03:58:42;;;;;;;3.50;3.30;;;15.70;58.80;;;;;;4952028;28;20098;-20
2022/01/24 04:01:08;;;;;;;3.47;3.28;;;15.60;59.00;;;;;;4958045;28;20101;-22
2022/01/24 04:03:35;;;;;;;3.10;2.90;;;15.60;59.00;;;;;;4958024;28;20050;-21
2022/01/24 04:06:01;;;;;;;3.40;3.20;;;15.70;59.00;;;;;;4950664;28;20425;-22
2022/01/24 04:08:26;;;;;;;3.05;2.85;;;15.70;58.80;;;;;;4957479;28;20043;-21
2022/01/24 04:10:55;;;;;;;3.45;3.25;;;15.60;59.00;;;;;;4952492;28;20504;-21
2022/01/24 04:15:59;;;;;;;3.30;3.10;;;15.60;59.10;;;;;;4957012;28;20045;-20
2022/01/24 04:21:31;;;;;;;3.50;3.30;;;15.60;59.10;;;;;;4950989;28;20050;-20
2022/01/24 04:26:25;;;;;;;3.05;2.85;;;15.60;59.00;;;;;;4957390;28;20039;-21
2022/01/24 04:28:51;;;;;;;3.20;3.00;;;15.60;59.10;;;;;;4956318;28;20035;-21
2022/01/24 04:31:17;;;;;;;3.22;3.03;;;15.60;59.00;;;;;;4957505;28;20906;-20
2022/01/24 04:33:42;;;;;;;3.47;3.17;;;15.60;58.90;;;;;;4955522;28;20036;-20
2022/01/24 04:36:08;;;;;;;3.08;2.88;;;15.60;59.00;;;;;;4957503;28;20039;-20
2022/01/24 04:38:34;;;;;;;3.08;2.90;;;15.70;58.90;;;;;;4949336;28;20409;-21
2022/01/24 04:41:04;;;;;;;3.53;3.28;;;15.70;59.00;;;;;;4957718;28;20048;-22
2022/01/24 04:51:30;;;;;;;3.10;2.90;;;15.60;59.00;;;;;;4957433;28;20073;-21
2022/01/24 04:56:33;;;;;;;2.90;2.80;;;15.60;59.30;;;;;;4956380;28;20047;-22
2022/01/24 04:58:59;;;;;;;2.72;2.63;;;15.60;59.10;;;;;;4955274;28;20035;-21
2022/01/24 05:01:24;;;;;;;2.78;2.58;;;15.50;59.20;;;;;;4953816;28;20051;-21
2022/01/24 05:03:50;;;;;;;3.20;3.00;;;15.60;59.20;;;;;;4957248;28;20109;-21
2022/01/24 05:06:15;;;;;;;3.00;2.80;;;15.60;59.10;;;;;;4955897;28;20051;-21
2022/01/24 05:08:42;;;;;;;3.00;2.80;;;15.50;59.20;;;;;;4956441;28;20063;-21
2022/01/24 05:11:11;;;;;;;2.60;2.50;;;15.50;59.10;;;;;;4956973;28;20055;-22
2022/01/24 05:24:22;;;;;;;2.92;2.80;;;15.50;59.10;;;;;;4956470;28;20047;-21
2022/01/24 05:26:47;;;;;;;2.50;2.30;;;15.50;59.20;;;;;;4956416;28;20047;-21
2022/01/24 05:29:13;;;;;;;2.25;2.15;;;15.50;59.30;;;;;;4955835;28;20039;-22
2022/01/24 05:31:38;;;;;;;2.80;2.60;;;15.50;59.30;;;;;;4953904;28;20050;-21
2022/01/24 05:34:04;;;;;;;2.67;2.58;;;15.50;59.30;;;;;;4947516;28;20039;-22
2022/01/24 05:36:29;;;;;;;2.50;2.40;;;15.40;59.30;;;;;;4947396;28;20105;-21
2022/01/24 05:38:57;;;;;;;2.50;2.40;;;15.50;59.20;;;;;;4956254;28;20043;-21
2022/01/24 05:41:22;;;;;;;2.70;2.50;;;15.50;59.20;;;;;;4955914;28;20062;-22
2022/01/24 05:43:48;;;;;;;2.53;2.33;;;15.50;59.30;;;;;;4947673;28;20051;-22
2022/01/24 05:46:14;;;;;;;2.47;2.38;;;15.50;59.20;;;;;;4956110;28;20051;-21
2022/01/24 05:48:39;;;;;;;2.40;2.30;;;15.50;59.20;;;;;;4956149;28;20042;-20
2022/01/24 05:51:05;;;;;;;2.50;2.40;;;15.50;59.20;;;;;;4955902;28;20078;-21
2022/01/24 05:53:30;;;;;;;2.22;2.13;;;15.50;59.30;;;;;;4956078;28;20126;-21
2022/01/24 05:55:56;;;;;;;2.40;2.30;;;15.50;59.20;;;;;;4956832;28;20500;-22
2022/01/24 05:58:22;;;;;;;2.22;2.13;;;15.50;59.20;;;;;;4954987;28;20050;-21
2022/01/24 06:00:47;;;;;;;2.15;2.05;;;15.50;59.10;;;;;;4954784;28;20051;-20
2022/01/24 06:03:13;;;;;;;2.17;2.08;;;15.50;59.00;;;;;;4956396;28;20525;-23
2022/01/24 06:05:38;;;;;;;2.38;2.28;;;15.50;59.20;;;;;;4949698;28;20183;-20
2022/01/24 06:08:04;;;;;;;2.08;1.98;;;15.50;59.10;;;;;;4956607;28;20044;-20
2022/01/24 06:10:30;;;;;;;2.10;2.00;;;15.50;59.20;;;;;;4951230;28;20047;-21
2022/01/24 06:12:55;;;;;;;2.10;1.92;;;15.50;59.10;;;;;;4960231;28;20054;-21
2022/01/24 06:15:21;;;;;;;2.17;2.08;;;15.40;59.10;;;;;;4958761;28;20047;-25
2022/01/24 06:17:47;;;;;;;2.20;2.10;;;15.50;59.20;;;;;;4957735;28;20134;-20
2022/01/24 06:20:12;;;;;;;2.05;1.95;;;15.50;59.20;;;;;;4960267;28;20102;-20
2022/01/24 06:22:39;;;;;;;1.80;1.70;;;15.40;59.20;;;;;;4956922;28;20138;-21
2022/01/24 06:25:05;;;;;;;2.58;1.80;;;15.40;59.40;;;;;;4959272;28;20444;-21
2022/01/24 06:27:31;;;;;;;2.08;1.98;;;15.40;59.80;;;;;;4959651;28;20057;-21
2022/01/24 06:29:56;;;;;;;2.30;2.20;;;15.40;59.80;;;;;;4951549;28;20059;-20
2022/01/24 06:32:22;;;;;;;2.35;1.88;;;15.40;60.00;;;;;;4958048;28;20118;-22
2022/01/24 06:34:48;;;;;;;2.67;2.33;;;15.40;60.70;;;;;;4959014;28;20852;-21
2022/01/24 06:37:13;;;;;;;2.53;2.42;;;15.40;61.10;;;;;;4955794;28;20043;-20
2022/01/24 06:39:39;;;;;;;3.25;2.97;;;15.50;60.30;;;;;;4954450;28;20048;-22
2022/01/24 06:42:21;;;;;;;3.00;2.90;;;15.60;60.00;;;;;;4959375;28;20047;-21
2022/01/24 06:44:47;;;;;;;2.97;2.78;;;15.50;60.10;;;;;;4954715;28;20055;-21
2022/01/24 06:47:13;;;;;;;3.05;2.85;;;15.60;60.30;;;;;;4959359;28;20047;-21
2022/01/24 06:49:39;;;;;;;3.30;3.10;;;15.60;60.00;;;;;;4958392;28;20592;-21
2022/01/24 06:52:06;;;;;;;2.63;2.53;;;15.50;60.10;;;;;;4957506;28;20058;-23
2022/01/24 06:54:33;;;;;;;2.83;2.70;;;15.50;60.10;;;;;;4955304;28;20382;-22
2022/01/24 06:56:58;;;;;;;3.20;2.90;;;15.70;60.00;;;;;;4957130;28;20461;-21
2022/01/24 06:59:24;;;;;;;2.67;2.58;;;15.80;60.00;;;;;;4958639;28;20235;-21
2022/01/24 07:01:49;;;;;;;3.15;2.53;;;15.90;60.30;;;;;;4957481;28;20083;-20
2022/01/24 07:04:15;;;;;;;2.97;2.78;;;15.90;61.10;;;;;;4956312;28;20070;-20
2022/01/24 07:06:41;;;;;;;2.75;2.55;;;16.00;61.40;;;;;;4955341;28;20039;-21
2022/01/24 07:09:06;;;;;;;2.83;2.72;;;16.00;61.70;;;;;;4957584;28;20043;-21
2022/01/24 07:11:32;;;;;;;2.35;2.20;;;15.90;61.90;;;;;;4956745;28;20420;-24
2022/01/24 07:13:57;;;;;;;4.20;3.95;;;15.80;62.10;;;;;;4952092;28;20068;-21
2022/01/24 07:16:34;;;;;;;4.70;4.40;;;15.80;62.10;;;;;;4955590;28;20047;-21
2022/01/24 07:19:03;;;;;;;4.38;4.07;;;15.80;62.20;;;;;;4957025;28;20055;-22
2022/01/24 07:21:29;;;;;;;8.73;5.93;;;15.70;62.50;;;;;;4956366;28;20431;-22
2022/01/24 07:23:54;;;;;;;7.07;6.38;;;15.80;62.10;;;;;;4955942;28;20142;-22
2022/01/24 07:26:20;;;;;;;11.70;6.65;;;15.80;61.80;;;;;;4957723;28;20511;-21
2022/01/24 07:28:46;;;;;;;9.00;6.75;;;15.70;62.10;;;;;;4956655;28;20039;-22
2022/01/24 07:31:12;;;;;;;12.98;7.72;;;15.80;62.00;;;;;;4956891;28;20051;-21
2022/01/24 07:33:37;;;;;;;11.95;8.25;;;15.60;61.90;;;;;;4955287;28;20110;-21
2022/01/24 07:36:03;;;;;;;8.32;7.35;;;15.80;61.80;;;;;;4956977;28;20063;-21
2022/01/24 07:38:29;;;;;;;9.13;7.10;;;16.00;61.30;;;;;;4952474;28;20047;-21
2022/01/24 07:40:56;;;;;;;18.70;7.03;;;16.00;61.40;;;;;;4951419;28;20082;-21
2022/01/24 07:43:21;;;;;;;11.77;7.47;;;15.90;61.30;;;;;;4955839;28;20050;-20
2022/01/24 07:45:47;;;;;;;12.43;7.15;;;15.80;61.60;;;;;;4956578;28;20043;-21
2022/01/24 07:48:13;;;;;;;9.98;7.05;;;15.80;61.70;;;;;;4957665;28;20043;-21
2022/01/24 07:50:41;;;;;;;11.88;7.15;;;15.80;61.60;;;;;;4957882;28;20043;-21
2022/01/24 07:53:10;;;;;;;9.18;7.45;;;15.80;61.50;;;;;;4944770;28;20081;-21
2022/01/24 07:55:35;;;;;;;9.02;7.63;;;15.90;61.40;;;;;;4958003;28;20039;-21
2022/01/24 07:58:01;;;;;;;9.75;6.57;;;15.80;61.40;;;;;;4958828;28;20050;-23
2022/01/24 08:00:27;;;;;;;7.85;6.43;;;15.80;61.50;;;;;;4957828;28;20047;-22
2022/01/24 08:02:53;;;;;;;7.90;7.10;;;15.80;61.50;;;;;;4948076;28;20047;-23
2022/01/24 08:05:18;;;;;;;7.22;6.50;;;15.80;61.50;;;;;;4956851;28;20126;-22
2022/01/24 08:07:44;;;;;;;8.50;6.93;;;15.90;61.60;;;;;;4955410;28;20122;-22
2022/01/24 08:10:10;;;;;;;6.93;6.07;;;15.80;61.60;;;;;;4956844;28;20070;-22
2022/01/24 08:12:36;;;;;;;6.95;6.28;;;15.80;61.50;;;;;;4956499;28;20050;-21
2022/01/24 08:15:02;;;;;;;6.60;6.07;;;15.80;61.70;;;;;;4957071;28;20054;-21
2022/01/24 08:17:29;;;;;;;7.47;6.75;;;15.80;61.60;;;;;;4956863;28;20050;-21
2022/01/24 08:19:54;;;;;;;10.90;7.10;;;15.70;61.70;;;;;;4954494;28;20055;-22
2022/01/24 08:22:20;;;;;;;8.25;6.60;;;15.80;61.70;;;;;;4956834;28;20050;-22
2022/01/24 08:24:46;;;;;;;9.75;6.82;;;15.70;61.70;;;;;;4956167;28;20046;-25
2022/01/24 08:27:15;;;;;;;7.53;6.82;;;15.80;61.60;;;;;;4955174;28;20508;-22
2022/01/24 08:29:48;;;;;;;6.88;6.10;;;15.70;61.70;;;;;;4955883;28;20055;-22
2022/01/24 08:32:15;;;;;;;6.77;6.23;;;15.70;61.70;;;;;;4957449;28;20047;-21
2022/01/24 08:34:40;;;;;;;8.63;6.78;;;15.70;62.50;;;;;;4949292;28;20043;-22
2022/01/24 08:37:06;;;;;;;7.68;6.65;;;15.70;61.80;;;;;;4957368;28;20221;-21
2022/01/24 08:39:32;;;;;;;6.60;6.00;;;15.70;61.80;;;;;;4956561;28;20094;-21
2022/01/24 08:42:08;;;;;;;7.25;6.10;;;15.70;61.70;;;;;;4956170;28;20130;-21
2022/01/24 08:45:44;;;;;;;6.93;6.13;;;15.70;61.80;;;;;;4956514;28;20043;-21
2022/01/24 08:47:19;;;;;;;6.47;5.90;;;15.70;61.70;;;;;;4956165;28;20058;-22
2022/01/24 08:49:45;;;;;;;6.50;5.93;;;15.70;61.40;;;;;;4956485;28;20954;-21
2022/01/24 08:52:11;;;;;;;6.47;5.85;;;15.70;61.60;;;;;;4955132;28;20051;-21
2022/01/24 08:54:36;;;;;;;6.88;6.05;;;15.70;61.60;;;;;;4956375;28;20051;-22
2022/01/24 08:57:02;;;;;;;6.45;5.80;;;15.70;61.60;;;;;;4957044;28;20043;-22
2022/01/24 08:59:28;;;;;;;6.70;6.20;;;15.70;61.50;;;;;;4957227;28;20055;-21
2022/01/24 09:01:54;;;;;;;7.28;6.10;;;15.70;61.40;;;;;;4955013;28;20101;-22
2022/01/24 09:04:19;;;;;;;7.28;6.07;;;15.80;61.40;;;;;;4956728;28;20047;-21
2022/01/24 09:06:45;;;;;;;6.90;5.95;;;15.80;61.40;;;;;;4956599;28;20048;-22
2022/01/24 09:09:12;;;;;;;7.97;6.47;;;15.70;61.40;;;;;;4956006;28;20533;-22
2022/01/24 09:11:38;;;;;;;9.57;6.38;;;15.80;61.30;;;;;;4956034;28;20412;-23
2022/01/24 09:14:05;;;;;;;7.32;6.60;;;15.80;61.20;;;;;;4955394;28;20040;-21
2022/01/24 09:16:30;;;;;;;11.75;7.07;;;15.80;61.30;;;;;;4953838;28;20051;-21
2022/01/24 09:18:56;;;;;;;6.88;6.15;;;15.80;61.30;;;;;;4955831;28;20035;-21
2022/01/24 09:21:22;;;;;;;6.35;5.75;;;15.80;61.10;;;;;;4956719;28;20118;-22
2022/01/24 09:23:48;;;;;;;9.52;6.63;;;15.80;61.00;;;;;;4962947;28;20530;-21
2022/01/24 09:26:13;;;;;;;6.80;6.15;;;15.80;61.00;;;;;;4946154;28;20474;-21
2022/01/24 09:28:39;;;;;;;6.72;6.13;;;15.80;61.00;;;;;;4955954;28;20056;-22
2022/01/24 09:31:05;;;;;;;6.07;5.43;;;15.80;60.90;;;;;;4964410;28;20066;-23
2022/01/24 09:33:30;;;;;;;7.47;5.38;;;15.90;60.90;;;;;;4955999;28;20152;-22
2022/01/24 09:35:59;;;;;;;6.40;5.80;;;15.90;61.00;;;;;;4955854;28;20059;-21
2022/01/24 09:38:30;;;;;;;6.30;5.70;;;15.90;60.90;;;;;;4948572;28;20043;-21
2022/01/24 09:40:56;;;;;;;6.20;5.70;;;16.00;60.70;;;;;;4955755;28;20086;-21
2022/01/24 09:43:22;;;;;;;5.10;4.80;;;16.00;60.30;;;;;;4955457;28;20480;-22
2022/01/24 09:45:47;;;;;;;6.00;5.40;;;16.00;60.20;;;;;;4954493;28;20445;-22
2022/01/24 09:48:13;;;;;;;6.28;5.65;;;16.00;60.40;;;;;;4956582;28;20508;-22
2022/01/24 09:50:39;;;;;;;5.47;4.97;;;16.20;59.90;;;;;;4955883;28;20058;-22
2022/01/24 09:53:05;;;;;;;5.53;5.03;;;16.20;59.90;;;;;;4953597;28;20047;-22
2022/01/24 09:55:30;;;;;;;5.22;4.80;;;16.20;60.20;;;;;;4955305;28;20066;-22
2022/01/24 09:57:56;;;;;;;5.30;4.80;;;16.20;59.90;;;;;;4955069;28;20500;-21
2022/01/24 10:00:23;;;;;;;6.22;5.38;;;16.20;59.90;;;;;;4954550;28;20054;-22
2022/01/24 10:02:50;;;;;;;5.28;4.75;;;16.20;60.00;;;;;;4953482;28;20431;-22
2022/01/24 10:05:17;;;;;;;5.30;4.85;;;16.20;60.00;;;;;;4958449;28;20066;-21
2022/01/24 10:07:57;;;;;;;5.10;4.72;;;16.20;60.80;;;;;;4954492;28;20157;-22
2022/01/24 10:10:45;;;;;;;4.97;4.53;;;16.20;60.00;;;;;;4955640;28;20055;-22
2022/01/24 10:16:42;;;;;;;4.68;4.22;;;16.30;59.80;;;;;;4951276;28;20678;-22
2022/01/24 10:19:08;;;;;;;5.37;4.40;;;16.30;59.80;;;;;;4952968;28;20044;-23
2022/01/24 10:21:39;;;;;;;5.15;4.75;;;16.40;59.60;;;;;;4955200;28;20094;-21
2022/01/24 10:24:05;;;;;;;5.20;4.63;;;16.40;59.60;;;;;;4953961;28;20047;-22
2022/01/24 10:26:30;;;;;;;5.15;4.60;;;16.40;59.70;;;;;;4947713;28;20596;-22
2022/01/24 10:28:56;;;;;;;4.70;4.30;;;16.40;59.60;;;;;;4955098;28;20047;-22
2022/01/24 10:31:28;;;;;;;4.47;3.97;;;16.40;59.60;;;;;;4951861;28;20047;-21
2022/01/24 10:33:59;;;;;;;4.85;4.45;;;16.50;59.50;;;;;;4955359;28;20078;-22
2022/01/24 10:36:39;;;;;;;4.72;4.32;;;16.60;59.50;;;;;;4955835;28;20394;-22
2022/01/24 10:39:08;;;;;;;4.28;3.97;;;16.60;59.50;;;;;;4955470;28;20082;-23
2022/01/24 10:44:29;;;;;;;4.28;3.97;;;16.60;59.40;;;;;;4955465;28;20077;-22
2022/01/24 10:47:10;;;;;;;4.07;3.88;;;16.60;59.30;;;;;;4954609;28;20106;-23
2022/01/24 10:49:35;;;;;;;4.60;4.20;;;16.60;59.50;;;;;;4937784;28;20046;-21
2022/01/24 10:52:09;;;;;;;5.00;4.60;;;16.60;59.50;;;;;;4953784;28;20047;-22
2022/01/24 10:54:35;;;;;;;4.38;4.07;;;16.70;59.50;;;;;;4954665;28;20043;-22
2022/01/24 10:57:00;;;;;;;4.07;3.83;;;16.80;59.30;;;;;;4954172;28;20122;-23
2022/01/24 10:59:26;;;;;;;4.07;3.78;;;16.80;59.20;;;;;;4954269;28;20047;-22
2022/01/24 11:01:52;;;;;;;5.75;3.90;;;16.80;59.10;;;;;;4957925;28;20047;-21
2022/01/24 11:04:18;;;;;;;5.57;4.32;;;16.80;60.10;;;;;;4954667;28;20055;-22
2022/01/24 11:06:49;;;;;;;5.32;4.75;;;16.80;60.90;;;;;;4956607;28;20129;-23
2022/01/24 11:09:24;;;;;;;4.70;4.35;;;16.90;60.30;;;;;;4956544;28;20079;-22
2022/01/24 11:11:50;;;;;;;4.57;4.18;;;16.80;59.70;;;;;;4956530;28;20131;-22
2022/01/24 11:14:18;;;;;;;5.60;5.20;;;16.80;60.40;;;;;;4958092;28;20067;-23
2022/01/24 11:16:44;;;;;;;5.25;4.85;;;16.90;61.00;;;;;;4955577;28;20047;-22
2022/01/24 11:19:29;;;;;;;6.38;4.82;;;16.90;61.00;;;;;;4954318;28;20066;-23
2022/01/24 11:21:56;;;;;;;6.35;5.70;;;17.00;60.20;;;;;;4949555;28;20047;-22
2022/01/24 11:24:29;;;;;;;5.70;5.18;;;17.00;60.40;;;;;;4953640;28;20078;-23
2022/01/24 11:26:54;;;;;;;5.18;4.68;;;17.00;60.10;;;;;;4956180;28;20412;-23
2022/01/24 11:29:20;;;;;;;7.15;5.22;;;16.90;59.60;;;;;;4956845;28;20130;-22
2022/01/24 11:32:19;;;;;;;5.53;5.05;;;16.90;60.60;;;;;;4955314;28;20039;-23
2022/01/24 11:34:49;;;;;;;5.85;5.45;;;16.90;60.00;;;;;;4954497;28;20053;-23
2022/01/24 11:37:35;;;;;;;5.53;5.03;;;16.90;60.10;;;;;;4955943;28;20535;-23
2022/01/24 11:40:10;;;;;;;4.93;4.60;;;16.90;60.30;;;;;;4956154;28;20040;-23
2022/01/24 11:42:36;;;;;;;5.70;5.20;;;17.00;60.00;;;;;;4956151;28;20102;-22
2022/01/24 11:45:10;;;;;;;5.20;4.80;;;17.00;60.50;;;;;;4954997;28;20043;-25
2022/01/24 11:47:36;;;;;;;6.70;5.60;;;17.00;60.50;;;;;;4956737;28;20039;-22
2022/01/24 11:50:23;;;;;;;5.60;5.10;;;17.10;60.50;;;;;;4953353;28;20132;-22
2022/01/24 11:52:50;;;;;;;4.90;4.55;;;17.00;60.20;;;;;;4953999;28;20427;-22
2022/01/24 11:55:27;;;;;;;5.13;4.57;;;17.10;60.00;;;;;;4955751;28;20507;-22
2022/01/24 11:57:57;;;;;;;5.93;5.43;;;17.10;60.70;;;;;;4955377;28;20043;-22
2022/01/24 12:00:26;;;;;;;5.03;4.57;;;17.20;60.10;;;;;;4955584;28;20054;-21
2022/01/24 12:02:59;;;;;;;5.30;4.90;;;17.10;60.00;;;;;;4955251;28;20050;-22
2022/01/24 12:05:41;;;;;;;5.18;4.78;;;17.20;60.50;;;;;;4957888;28;20051;-23
2022/01/24 12:08:07;;;;;;;5.35;4.95;;;17.20;60.30;;;;;;4956449;28;20130;-22
2022/01/24 12:10:36;;;;;;;5.65;5.13;;;17.20;60.10;;;;;;4957801;28;20436;-22
2022/01/24 12:13:04;;;;;;;6.70;6.03;;;17.20;60.10;;;;;;4954811;28;20043;-21
2022/01/24 12:15:38;;;;;;;6.95;6.30;;;17.20;60.10;;;;;;4956632;28;20098;-21
2022/01/24 12:18:11;;;;;;;8.02;6.35;;;17.30;60.50;;;;;;4956111;28;20047;-22
2022/01/24 12:20:36;;;;;;;8.88;6.93;;;17.30;61.10;;;;;;4955655;28;20469;-22
2022/01/24 12:23:18;;;;;;;7.93;6.40;;;17.30;60.00;;;;;;4609384;28;9999821;-21
2022/01/24 12:25:54;;;;;;;10.20;7.10;;;17.30;60.10;;;;;;4947869;28;20194;-22
2022/01/24 12:28:21;;;;;;;13.25;8.65;;;17.30;59.90;;;;;;4950996;28;20101;-22
2022/01/24 12:31:07;;;;;;;8.25;7.45;;;17.40;60.30;;;;;;4945304;28;20109;-21
2022/01/24 12:33:36;;;;;;;8.95;7.93;;;17.40;59.70;;;;;;4954621;28;20504;-21
2022/01/24 12:36:09;;;;;;;11.52;8.73;;;17.40;60.30;;;;;;4952154;28;20413;-21
2022/01/24 12:38:51;;;;;;;9.95;8.93;;;17.50;60.70;;;;;;4959307;28;20062;-22
2022/01/24 12:41:17;;;;;;;17.90;10.55;;;17.50;60.60;;;;;;4949945;28;20658;-22
2022/01/24 12:46:41;;;;;;;16.33;11.00;;;17.60;60.20;;;;;;4944627;28;20611;-22
2022/01/24 12:49:07;;;;;;;17.17;10.82;;;17.60;60.30;;;;;;4952641;28;20677;-22
2022/01/24 12:51:36;;;;;;;15.82;10.30;;;17.60;60.00;;;;;;4953635;28;20058;-22
2022/01/24 12:54:04;;;;;;;15.95;10.05;;;17.60;60.10;;;;;;4955664;28;20047;-21
2022/01/24 12:56:31;;;;;;;15.13;10.50;;;17.70;60.10;;;;;;4947024;28;20512;-21
2022/01/24 12:58:56;;;;;;;15.70;10.13;;;17.70;59.80;;;;;;4954393;28;20445;-22
2022/01/24 13:01:26;;;;;;;12.88;9.50;;;17.70;59.80;;;;;;4956727;28;20465;-21
2022/01/24 13:03:59;;;;;;;15.70;8.88;;;17.70;59.70;;;;;;4954828;28;20059;-22
2022/01/24 13:06:30;;;;;;;14.60;10.03;;;17.70;59.60;;;;;;4946829;28;20524;-22
2022/01/24 13:08:59;;;;;;;13.50;8.93;;;17.80;59.60;;;;;;4955672;28;20097;-22
2022/01/24 13:11:27;;;;;;;11.68;8.23;;;17.80;59.40;;;;;;4955824;28;20051;-23
2022/01/24 13:14:04;;;;;;;11.32;7.95;;;17.70;59.40;;;;;;4956545;28;20579;-22
2022/01/24 13:22:23;;;;;;;7.85;6.97;;;17.70;60.00;;;;;;4954241;28;20512;-23
2022/01/24 13:25:11;;;;;;;8.80;7.15;;;17.80;59.40;;;;;;4955207;28;20126;-23
2022/01/24 13:27:40;;;;;;;8.18;6.53;;;17.80;59.40;;;;;;4954072;28;20043;-22
2022/01/24 13:30:08;;;;;;;7.63;6.43;;;17.80;59.30;;;;;;4954521;28;20176;-22
2022/01/24 13:33:01;;;;;;;8.27;6.90;;;17.80;59.10;;;;;;4951228;28;20086;-22
2022/01/24 13:35:37;;;;;;;8.07;6.30;;;17.80;59.10;;;;;;4947013;28;20054;-22
2022/01/24 13:38:11;;;;;;;8.18;6.13;;;17.80;59.00;;;;;;4953398;28;20070;-22
2022/01/24 13:43:31;;;;;;;9.30;5.95;;;17.80;59.00;;;;;;4952057;28;20102;-22
2022/01/24 13:45:57;;;;;;;6.75;5.13;;;17.80;59.00;;;;;;4950609;28;20520;-22
2022/01/24 13:48:24;;;;;;;6.00;5.43;;;17.80;59.00;;;;;;4952287;28;20465;-22
2022/01/24 13:50:51;;;;;;;6.13;5.60;;;17.80;59.10;;;;;;4953670;28;20061;-22
2022/01/24 13:53:36;;;;;;;6.18;5.60;;;17.80;59.00;;;;;;4955493;28;20529;-21
2022/01/24 13:56:15;;;;;;;6.25;5.75;;;17.80;58.70;;;;;;4952773;28;20047;-22
2022/01/24 13:58:41;;;;;;;10.65;5.47;;;17.70;58.90;;;;;;4954872;28;20051;-22
2022/01/24 14:01:06;;;;;;;5.80;5.30;;;17.70;58.90;;;;;;4951510;28;20098;-22
2022/01/24 14:03:32;;;;;;;5.95;4.97;;;17.80;59.00;;;;;;4955751;28;20133;-22
2022/01/24 14:06:17;;;;;;;5.05;4.65;;;17.70;59.20;;;;;;4949401;28;20055;-23
2022/01/24 14:08:43;;;;;;;4.57;4.18;;;17.70;59.20;;;;;;4951203;28;20047;-23
2022/01/24 14:11:13;;;;;;;4.85;4.40;;;17.70;59.00;;;;;;4951417;28;20055;-23
2022/01/24 14:13:40;;;;;;;5.03;4.40;;;17.60;58.90;;;;;;4941684;28;20158;-23
2022/01/24 14:16:12;;;;;;;5.45;4.70;;;17.50;59.40;;;;;;4954680;28;20070;-22
2022/01/24 14:18:38;;;;;;;8.43;4.70;;;17.60;59.10;;;;;;4955350;28;20099;-23
2022/01/24 14:21:13;;;;;;;4.57;4.18;;;17.60;59.00;;;;;;4955320;28;20047;-23
2022/01/24 14:23:39;;;;;;;4.82;4.40;;;17.50;59.10;;;;;;4954438;28;20133;-22
2022/01/24 14:26:27;;;;;;;5.30;4.32;;;17.50;59.20;;;;;;4945246;28;20071;-22
2022/01/24 14:29:11;;;;;;;5.10;4.28;;;17.50;59.20;;;;;;4955731;28;20049;-22
2022/01/24 14:31:37;;;;;;;4.82;4.07;;;17.40;59.20;;;;;;4954590;28;20089;-23
2022/01/24 14:34:07;;;;;;;5.28;4.40;;;17.40;59.20;;;;;;4956682;28;20075;-22
2022/01/24 14:36:32;;;;;;;4.75;4.35;;;17.40;59.30;;;;;;4957147;28;20567;-22
2022/01/24 14:39:09;;;;;;;4.32;3.90;;;17.40;59.20;;;;;;4957864;28;20491;-23
2022/01/24 14:41:46;;;;;;;3.95;3.65;;;17.50;59.20;;;;;;4958472;28;20055;-23
2022/01/24 14:46:58;;;;;;;4.50;4.10;;;17.50;59.10;;;;;;4942175;28;20181;-22